createdAt,value
2018-12-16T00:03:04.177Z,47.64
2018-12-16T00:08:06.701Z,47.23
2018-12-16T00:13:09.468Z,47.63
2018-12-16T00:18:12.064Z,47.38
2018-12-16T00:23:14.565Z,47.75
2018-12-16T00:28:17.233Z,47.34
2018-12-16T00:33:19.717Z,47.46
2018-12-16T00:38:22.336Z,47.80
2018-12-16T00:43:25.133Z,47.70
2018-12-16T00:48:27.634Z,47.79
2018-12-16T00:53:30.136Z,47.25
2018-12-16T00:58:32.608Z,47.35
2018-12-16T01:03:35.085Z,47.38
2018-12-16T01:08:37.581Z,47.36
2018-12-16T01:13:40.053Z,47.73
2018-12-16T01:18:42.525Z,47.48
2018-12-16T01:23:45.065Z,47.30
2018-12-16T01:28:48.429Z,47.62
2018-12-16T01:33:50.929Z,47.35
2018-12-16T01:38:53.425Z,47.34
2018-12-16T01:43:55.965Z,47.50
2018-12-16T01:48:58.428Z,47.31
2018-12-16T01:54:00.940Z,47.34
2018-12-16T01:59:03.602Z,47.60
2018-12-16T02:04:06.097Z,47.77
2018-12-16T02:09:10.553Z,47.42
2018-12-16T02:14:13.020Z,47.19
2018-12-16T02:19:15.493Z,46.98
2018-12-16T02:24:18.021Z,47.22
2018-12-16T02:29:20.497Z,47.67
2018-12-16T02:34:22.977Z,47.26
2018-12-16T02:39:25.449Z,47.83
2018-12-16T02:44:27.998Z,47.30
2018-12-16T02:49:30.530Z,47.21
2018-12-16T02:54:32.994Z,47.80
2018-12-16T02:59:35.623Z,47.70
2018-12-16T03:04:38.149Z,47.34
2018-12-16T03:09:40.625Z,47.46
2018-12-16T03:14:43.169Z,47.40
2018-12-16T03:19:45.804Z,47.72
2018-12-16T03:24:48.270Z,47.64
2018-12-16T03:29:50.737Z,47.78
2018-12-16T03:34:53.441Z,47.80
2018-12-16T03:39:56.094Z,47.63
2018-12-16T03:44:58.566Z,47.66
2018-12-16T03:50:01.061Z,47.35
2018-12-16T03:55:04.434Z,47.74
2018-12-16T04:00:07.339Z,47.55
2018-12-16T04:05:09.842Z,47.58
2018-12-16T04:10:12.749Z,47.14
2018-12-16T04:15:15.503Z,47.22
2018-12-16T04:20:17.993Z,47.30
2018-12-16T04:25:21.718Z,47.57
2018-12-16T04:30:24.190Z,47.44
2018-12-16T04:35:26.665Z,47.08
2018-12-16T04:40:29.144Z,47.01
2018-12-16T04:45:31.638Z,47.52
2018-12-16T04:50:34.116Z,47.21
2018-12-16T04:55:36.581Z,47.23
2018-12-16T05:00:39.074Z,47.55
2018-12-16T05:05:41.551Z,47.30
2018-12-16T05:10:44.297Z,47.17
2018-12-16T05:15:47.146Z,47.37
2018-12-16T05:20:49.866Z,47.09
2018-12-16T05:25:52.332Z,47.50
2018-12-16T05:30:54.817Z,47.12
2018-12-16T05:35:57.285Z,46.94
2018-12-16T05:41:00.037Z,46.87
2018-12-16T05:46:02.549Z,46.97
2018-12-16T05:51:05.053Z,46.83
2018-12-16T05:56:07.661Z,47.02
2018-12-16T06:01:10.309Z,47.32
2018-12-16T06:06:12.830Z,47.13
2018-12-16T06:11:15.296Z,47.19
2018-12-16T06:16:17.769Z,47.01
2018-12-16T06:21:20.382Z,47.05
2018-12-16T06:26:22.848Z,47.05
2018-12-16T06:31:25.465Z,47.11
2018-12-16T06:36:27.936Z,47.01
2018-12-16T06:41:31.077Z,47.08
2018-12-16T06:46:33.662Z,47.20
2018-12-16T06:51:36.269Z,47.22
2018-12-16T06:56:39.024Z,46.73
2018-12-16T07:01:41.745Z,47.40
2018-12-16T07:06:44.218Z,47.33
2018-12-16T07:11:46.849Z,47.34
2018-12-16T07:16:49.392Z,47.03
2018-12-16T07:21:51.992Z,47.29
2018-12-16T07:26:55.253Z,47.49
2018-12-16T07:31:57.720Z,47.13
2018-12-16T07:37:00.218Z,47.23
2018-12-16T07:42:02.704Z,47.19
2018-12-16T07:47:05.204Z,47.20
2018-12-16T07:52:07.700Z,46.73
2018-12-16T07:57:10.402Z,46.97
2018-12-16T08:02:12.872Z,46.76
2018-12-16T08:07:15.401Z,34.12
2018-12-16T08:12:18.068Z,28.77
2018-12-16T08:17:20.556Z,28.68
2018-12-16T08:22:23.053Z,29.85
2018-12-16T08:27:25.750Z,33.42
2018-12-16T08:32:28.220Z,36.19
2018-12-16T08:37:30.717Z,37.64
2018-12-16T08:42:33.188Z,38.27
2018-12-16T08:47:35.717Z,38.59
2018-12-16T08:52:38.197Z,39.62
2018-12-16T08:57:40.766Z,39.81
2018-12-16T09:02:43.249Z,39.79
2018-12-16T09:07:45.717Z,40.56
2018-12-16T09:12:48.277Z,40.33
2018-12-16T09:17:51.306Z,41.08
2018-12-16T09:22:53.815Z,41.60
2018-12-16T09:27:56.573Z,41.12
2018-12-16T09:32:59.129Z,41.35
2018-12-16T09:38:02.544Z,42.05
2018-12-16T09:43:05.137Z,42.38
2018-12-16T09:48:07.629Z,42.15
2018-12-16T09:53:10.584Z,42.50
2018-12-16T09:58:13.052Z,42.92
2018-12-16T10:03:15.583Z,42.66
2018-12-16T10:08:18.061Z,42.68
2018-12-16T10:13:21.033Z,42.97
2018-12-16T10:18:23.539Z,42.96
2018-12-16T10:23:26.017Z,42.89
2018-12-16T10:28:28.636Z,42.70
2018-12-16T10:33:31.110Z,43.24
2018-12-16T10:38:34.244Z,42.98
2018-12-16T10:43:37.025Z,43.57
2018-12-16T10:48:39.529Z,43.75
2018-12-16T10:53:41.996Z,43.97
2018-12-16T10:58:44.464Z,43.59
2018-12-16T11:03:47.040Z,43.83
2018-12-16T11:08:49.545Z,44.04
2018-12-16T11:13:52.279Z,43.78
2018-12-16T11:18:54.753Z,44.01
2018-12-16T11:23:57.257Z,43.82
2018-12-16T11:29:00.101Z,44.14
2018-12-16T11:34:02.766Z,43.89
2018-12-16T11:39:07.189Z,43.81
2018-12-16T11:44:09.760Z,44.22
2018-12-16T11:49:12.697Z,43.74
2018-12-16T11:54:15.206Z,43.96
2018-12-16T11:59:17.678Z,44.23
2018-12-16T12:04:20.313Z,44.53
2018-12-16T12:09:22.773Z,45.25
2018-12-16T12:14:25.228Z,44.85
2018-12-16T12:19:31.557Z,44.97
2018-12-16T12:24:34.023Z,44.68
2018-12-16T12:29:36.501Z,44.99
2018-12-16T12:34:38.976Z,44.91
2018-12-16T12:39:41.449Z,45.11
2018-12-16T12:44:43.929Z,44.93
2018-12-16T12:49:46.429Z,44.24
2018-12-16T12:54:48.903Z,32.95
2018-12-16T12:59:51.385Z,28.52
2018-12-16T13:04:53.987Z,26.55
2018-12-16T13:09:57.030Z,29.05
2018-12-16T13:14:59.584Z,31.90
2018-12-16T13:20:02.150Z,34.64
2018-12-16T13:25:16.878Z,35.66
2018-12-16T13:30:19.347Z,36.09
2018-12-16T13:35:21.813Z,36.88
2018-12-16T13:40:24.933Z,37.04
2018-12-16T13:45:27.391Z,37.30
2018-12-16T13:50:29.885Z,38.15
2018-12-16T13:55:32.449Z,37.93
2018-12-16T14:00:34.957Z,38.28
2018-12-16T14:05:37.485Z,38.72
2018-12-16T14:10:39.957Z,38.53
2018-12-16T14:15:42.457Z,38.87
2018-12-16T14:20:44.925Z,38.75
2018-12-16T14:25:48.162Z,39.15
2018-12-16T14:30:51.164Z,39.62
2018-12-16T14:35:53.673Z,39.52
2018-12-16T14:40:56.146Z,39.79
2018-12-16T14:45:58.612Z,39.90
2018-12-16T14:51:01.084Z,39.69
2018-12-16T14:56:03.625Z,39.82
2018-12-16T15:01:06.117Z,40.54
2018-12-16T15:06:09.056Z,40.42
2018-12-16T15:11:11.614Z,40.66
2018-12-16T15:16:14.201Z,40.94
2018-12-16T15:21:16.697Z,40.76
2018-12-16T15:26:19.186Z,41.52
2018-12-16T15:31:21.685Z,41.52
2018-12-16T15:36:24.153Z,41.91
2018-12-16T15:41:26.865Z,42.82
2018-12-16T15:46:29.368Z,42.24
2018-12-16T15:51:31.857Z,42.64
2018-12-16T15:56:34.385Z,43.13
2018-12-16T16:01:37.872Z,43.20
2018-12-16T16:06:40.397Z,42.88
2018-12-16T16:11:42.861Z,43.60
2018-12-16T16:16:45.335Z,43.46
2018-12-16T16:21:47.820Z,42.99
2018-12-16T16:26:50.419Z,43.29
2018-12-16T16:31:52.908Z,42.98
2018-12-16T16:36:55.392Z,43.14
2018-12-16T16:41:57.888Z,42.62
2018-12-16T16:47:00.349Z,42.79
2018-12-16T16:52:02.869Z,42.94
2018-12-16T16:57:05.394Z,43.11
2018-12-16T17:02:07.888Z,43.24
2018-12-16T17:07:10.353Z,42.99
2018-12-16T17:12:12.862Z,42.91
2018-12-16T17:17:15.668Z,42.92
2018-12-16T17:22:18.366Z,43.33
2018-12-16T17:27:20.833Z,43.15
2018-12-16T17:32:23.649Z,43.13
2018-12-16T17:37:26.155Z,43.81
2018-12-16T17:42:28.655Z,43.60
2018-12-16T17:47:31.125Z,43.99
2018-12-16T17:52:33.596Z,43.96
2018-12-16T17:57:36.074Z,44.21
2018-12-16T18:02:38.691Z,44.31
2018-12-16T18:07:41.166Z,43.83
2018-12-16T18:12:43.725Z,44.18
2018-12-16T18:17:46.273Z,43.76
2018-12-16T18:22:48.740Z,44.45
2018-12-16T18:27:51.243Z,44.00
2018-12-16T18:32:53.713Z,44.45
2018-12-16T18:37:56.493Z,44.70
2018-12-16T18:42:58.998Z,44.97
2018-12-16T18:48:01.489Z,45.26
2018-12-16T18:53:04.019Z,45.27
2018-12-16T18:58:06.512Z,45.07
2018-12-16T19:03:09.314Z,45.28
2018-12-16T19:08:11.829Z,45.24
2018-12-16T19:13:14.918Z,45.41
2018-12-16T19:18:17.613Z,44.98
2018-12-16T19:23:20.089Z,45.26
2018-12-16T19:28:22.568Z,45.30
2018-12-16T19:33:25.036Z,45.58
2018-12-16T19:38:27.609Z,45.45
2018-12-16T19:43:30.091Z,45.21
2018-12-16T19:48:32.756Z,45.66
2018-12-16T19:53:35.313Z,45.63
2018-12-16T19:58:38.124Z,45.35
2018-12-16T20:03:42.614Z,45.62
2018-12-16T20:08:45.789Z,45.77
2018-12-16T20:13:48.268Z,46.13
2018-12-16T20:18:51.412Z,45.85
2018-12-16T20:23:53.885Z,45.74
2018-12-16T20:28:56.381Z,46.01
2018-12-16T20:33:58.882Z,46.09
2018-12-16T20:39:01.383Z,45.90
2018-12-16T20:44:03.892Z,46.00
2018-12-16T20:49:06.400Z,45.88
2018-12-16T20:54:08.890Z,46.00
2018-12-16T20:59:11.369Z,45.83
2018-12-16T21:04:14.621Z,45.92
2018-12-16T21:09:17.347Z,45.97
2018-12-16T21:14:25.594Z,45.59
2018-12-16T21:19:28.377Z,45.90
2018-12-16T21:24:30.845Z,45.82
2018-12-16T21:29:33.348Z,45.68
2018-12-16T21:34:36.140Z,45.99
2018-12-16T21:39:38.613Z,45.89
2018-12-16T21:44:41.089Z,45.91
2018-12-16T21:49:44.081Z,46.26
2018-12-16T21:54:46.649Z,46.38
2018-12-16T21:59:49.354Z,46.04
2018-12-16T22:04:51.908Z,46.02
2018-12-16T22:09:54.513Z,46.20
2018-12-16T22:14:57.001Z,45.97
2018-12-16T22:19:59.472Z,46.37
2018-12-16T22:25:02.380Z,45.82
2018-12-16T22:30:05.394Z,45.96
2018-12-16T22:35:07.908Z,46.31
2018-12-16T22:40:10.816Z,46.24
2018-12-16T22:45:13.284Z,46.55
2018-12-16T22:50:16.120Z,46.17
2018-12-16T22:55:18.592Z,46.09
2018-12-16T23:00:21.593Z,46.83
2018-12-16T23:05:24.090Z,46.47
2018-12-16T23:10:26.560Z,46.77
2018-12-16T23:15:29.056Z,46.35
2018-12-16T23:20:31.533Z,46.57
2018-12-16T23:25:35.146Z,46.75
2018-12-16T23:30:37.757Z,46.45
2018-12-16T23:35:40.304Z,46.26
2018-12-16T23:40:42.840Z,46.32
2018-12-16T23:45:45.385Z,46.17
2018-12-16T23:50:47.991Z,46.36
2018-12-16T23:55:50.625Z,46.32
